sensor_id;sensor_type;location;lat;lon;timestamp;P1;durP1;ratioP1;P2;durP2;ratioP2
1358;SDS011;673;48.098;14.422;2023-06-04T00:01:27;3.23;;;1.27;;
1358;SDS011;673;48.098;14.422;2023-06-04T00:03:54;1.10;;;1.00;;
1358;SDS011;673;48.098;14.422;2023-06-04T00:06:22;2.23;;;1.00;;
1358;SDS011;673;48.098;14.422;2023-06-04T00:08:49;2.83;;;1.23;;
1358;SDS011;673;48.098;14.422;2023-06-04T00:11:16;1.00;;;0.90;;
1358;SDS011;673;48.098;14.422;2023-06-04T00:13:43;2.70;;;1.07;;
1358;SDS011;673;48.098;14.422;2023-06-04T00:16:10;1.10;;;1.00;;
1358;SDS011;673;48.098;14.422;2023-06-04T00:18:37;1.20;;;0.90;;
1358;SDS011;673;48.098;14.422;2023-06-04T00:21:04;2.10;;;0.97;;
1358;SDS011;673;48.098;14.422;2023-06-04T00:23:32;2.30;;;1.00;;
1358;SDS011;673;48.098;14.422;2023-06-04T00:26:00;1.10;;;1.00;;
1358;SDS011;673;48.098;14.422;2023-06-04T00:28:27;1.80;;;0.80;;
1358;SDS011;673;48.098;14.422;2023-06-04T00:30:54;3.47;;;1.30;;
1358;SDS011;673;48.098;14.422;2023-06-04T00:33:21;2.60;;;1.40;;
1358;SDS011;673;48.098;14.422;2023-06-04T00:35:48;1.80;;;1.20;;
1358;SDS011;673;48.098;14.422;2023-06-04T00:38:15;2.43;;;1.33;;
1358;SDS011;673;48.098;14.422;2023-06-04T00:40:43;1.60;;;1.07;;
1358;SDS011;673;48.098;14.422;2023-06-04T00:43:10;1.37;;;1.10;;
1358;SDS011;673;48.098;14.422;2023-06-04T00:45:38;1.10;;;1.00;;
1358;SDS011;673;48.098;14.422;2023-06-04T00:48:05;2.13;;;1.33;;
1358;SDS011;673;48.098;14.422;2023-06-04T00:50:32;1.77;;;1.30;;
1358;SDS011;673;48.098;14.422;2023-06-04T00:53:01;2.33;;;1.20;;
1358;SDS011;673;48.098;14.422;2023-06-04T00:55:27;1.37;;;0.97;;
1358;SDS011;673;48.098;14.422;2023-06-04T00:57:56;1.47;;;0.90;;
1358;SDS011;673;48.098;14.422;2023-06-04T01:00:23;3.63;;;1.33;;
1358;SDS011;673;48.098;14.422;2023-06-04T01:02:51;1.30;;;0.97;;
1358;SDS011;673;48.098;14.422;2023-06-04T01:05:21;1.70;;;1.10;;
1358;SDS011;673;48.098;14.422;2023-06-04T01:07:55;2.60;;;0.90;;
1358;SDS011;673;48.098;14.422;2023-06-04T01:10:23;1.57;;;1.20;;
1358;SDS011;673;48.098;14.422;2023-06-04T01:12:50;1.70;;;0.93;;
1358;SDS011;673;48.098;14.422;2023-06-04T01:15:19;1.50;;;1.10;;
1358;SDS011;673;48.098;14.422;2023-06-04T01:17:47;1.40;;;1.07;;
1358;SDS011;673;48.098;14.422;2023-06-04T01:20:27;1.97;;;1.37;;
1358;SDS011;673;48.098;14.422;2023-06-04T01:25:54;3.63;;;1.50;;
1358;SDS011;673;48.098;14.422;2023-06-04T01:28:22;1.77;;;0.90;;
1358;SDS011;673;48.098;14.422;2023-06-04T01:30:51;1.23;;;0.80;;
1358;SDS011;673;48.098;14.422;2023-06-04T01:33:22;1.10;;;1.00;;
1358;SDS011;673;48.098;14.422;2023-06-04T01:35:49;2.57;;;1.37;;
1358;SDS011;673;48.098;14.422;2023-06-04T01:38:16;3.73;;;1.87;;
1358;SDS011;673;48.098;14.422;2023-06-04T01:40:43;4.70;;;1.17;;
1358;SDS011;673;48.098;14.422;2023-06-04T01:43:10;2.63;;;1.37;;
1358;SDS011;673;48.098;14.422;2023-06-04T01:45:37;1.30;;;1.00;;
1358;SDS011;673;48.098;14.422;2023-06-04T01:48:05;1.30;;;1.20;;
1358;SDS011;673;48.098;14.422;2023-06-04T01:50:32;1.73;;;1.17;;
1358;SDS011;673;48.098;14.422;2023-06-04T01:53:00;4.20;;;1.10;;
1358;SDS011;673;48.098;14.422;2023-06-04T01:55:26;2.40;;;1.43;;
1358;SDS011;673;48.098;14.422;2023-06-04T01:57:58;2.17;;;1.50;;
1358;SDS011;673;48.098;14.422;2023-06-04T02:00:25;3.60;;;1.10;;
1358;SDS011;673;48.098;14.422;2023-06-04T02:02:53;2.43;;;1.20;;
1358;SDS011;673;48.098;14.422;2023-06-04T02:05:22;3.03;;;0.93;;
1358;SDS011;673;48.098;14.422;2023-06-04T02:07:49;1.70;;;1.20;;
1358;SDS011;673;48.098;14.422;2023-06-04T02:10:17;1.37;;;1.27;;
1358;SDS011;673;48.098;14.422;2023-06-04T02:12:55;2.30;;;1.10;;
1358;SDS011;673;48.098;14.422;2023-06-04T02:15:23;4.37;;;1.30;;
1358;SDS011;673;48.098;14.422;2023-06-04T02:17:53;4.10;;;1.17;;
1358;SDS011;673;48.098;14.422;2023-06-04T02:20:24;1.90;;;1.00;;
1358;SDS011;673;48.098;14.422;2023-06-04T02:22:53;2.60;;;1.03;;
1358;SDS011;673;48.098;14.422;2023-06-04T02:25:20;3.93;;;1.90;;
1358;SDS011;673;48.098;14.422;2023-06-04T02:27:48;2.47;;;1.53;;
1358;SDS011;673;48.098;14.422;2023-06-04T02:30:15;1.27;;;1.00;;
1358;SDS011;673;48.098;14.422;2023-06-04T02:32:42;1.53;;;1.27;;
1358;SDS011;673;48.098;14.422;2023-06-04T02:35:11;1.87;;;1.17;;
1358;SDS011;673;48.098;14.422;2023-06-04T02:37:39;1.63;;;1.53;;
1358;SDS011;673;48.098;14.422;2023-06-04T02:40:07;11.23;;;2.00;;
1358;SDS011;673;48.098;14.422;2023-06-04T02:42:34;2.37;;;1.23;;
1358;SDS011;673;48.098;14.422;2023-06-04T02:45:01;5.10;;;2.23;;
1358;SDS011;673;48.098;14.422;2023-06-04T02:47:29;3.67;;;1.40;;
1358;SDS011;673;48.098;14.422;2023-06-04T02:49:55;2.23;;;1.37;;
1358;SDS011;673;48.098;14.422;2023-06-04T02:52:22;2.70;;;2.50;;
1358;SDS011;673;48.098;14.422;2023-06-04T02:54:51;2.57;;;1.30;;
1358;SDS011;673;48.098;14.422;2023-06-04T02:57:18;1.97;;;1.43;;
1358;SDS011;673;48.098;14.422;2023-06-04T02:59:45;3.03;;;1.23;;
1358;SDS011;673;48.098;14.422;2023-06-04T03:02:12;2.80;;;1.40;;
1358;SDS011;673;48.098;14.422;2023-06-04T03:04:40;2.50;;;1.50;;
1358;SDS011;673;48.098;14.422;2023-06-04T03:07:07;1.53;;;1.30;;
1358;SDS011;673;48.098;14.422;2023-06-04T03:09:36;2.50;;;1.30;;
1358;SDS011;673;48.098;14.422;2023-06-04T03:12:06;1.73;;;1.27;;
1358;SDS011;673;48.098;14.422;2023-06-04T03:14:33;1.80;;;1.30;;
1358;SDS011;673;48.098;14.422;2023-06-04T03:17:00;3.97;;;1.50;;
1358;SDS011;673;48.098;14.422;2023-06-04T03:19:32;2.30;;;0.93;;
1358;SDS011;673;48.098;14.422;2023-06-04T03:22:00;2.23;;;1.63;;
1358;SDS011;673;48.098;14.422;2023-06-04T03:24:32;1.77;;;1.30;;
1358;SDS011;673;48.098;14.422;2023-06-04T03:27:00;2.70;;;1.20;;
1358;SDS011;673;48.098;14.422;2023-06-04T03:29:29;2.57;;;1.00;;
1358;SDS011;673;48.098;14.422;2023-06-04T03:31:57;1.80;;;1.57;;
1358;SDS011;673;48.098;14.422;2023-06-04T03:34:24;5.30;;;1.97;;
1358;SDS011;673;48.098;14.422;2023-06-04T03:36:51;3.67;;;1.50;;
1358;SDS011;673;48.098;14.422;2023-06-04T03:39:18;2.27;;;1.10;;
1358;SDS011;673;48.098;14.422;2023-06-04T03:41:45;1.90;;;1.53;;
1358;SDS011;673;48.098;14.422;2023-06-04T03:44:12;1.00;;;1.00;;
1358;SDS011;673;48.098;14.422;2023-06-04T03:46:41;1.47;;;1.23;;
1358;SDS011;673;48.098;14.422;2023-06-04T03:49:08;5.97;;;2.27;;
1358;SDS011;673;48.098;14.422;2023-06-04T03:51:35;1.53;;;1.07;;
1358;SDS011;673;48.098;14.422;2023-06-04T03:54:02;2.13;;;1.87;;
1358;SDS011;673;48.098;14.422;2023-06-04T03:56:30;5.23;;;1.90;;
1358;SDS011;673;48.098;14.422;2023-06-04T03:58:57;4.00;;;1.90;;
1358;SDS011;673;48.098;14.422;2023-06-04T04:01:24;1.80;;;1.47;;
1358;SDS011;673;48.098;14.422;2023-06-04T04:03:53;3.73;;;1.10;;
1358;SDS011;673;48.098;14.422;2023-06-04T04:06:20;1.93;;;1.33;;
1358;SDS011;673;48.098;14.422;2023-06-04T04:08:47;3.43;;;1.40;;
1358;SDS011;673;48.098;14.422;2023-06-04T04:11:15;4.33;;;1.77;;
1358;SDS011;673;48.098;14.422;2023-06-04T04:13:43;2.13;;;1.83;;
1358;SDS011;673;48.098;14.422;2023-06-04T04:16:11;2.37;;;1.30;;
1358;SDS011;673;48.098;14.422;2023-06-04T04:18:40;2.40;;;1.57;;
1358;SDS011;673;48.098;14.422;2023-06-04T04:21:09;3.83;;;1.10;;
1358;SDS011;673;48.098;14.422;2023-06-04T04:23:37;7.77;;;1.77;;
1358;SDS011;673;48.098;14.422;2023-06-04T04:26:06;3.47;;;1.70;;
1358;SDS011;673;48.098;14.422;2023-06-04T04:28:35;2.77;;;1.40;;
1358;SDS011;673;48.098;14.422;2023-06-04T04:31:02;1.90;;;1.30;;
1358;SDS011;673;48.098;14.422;2023-06-04T04:33:29;4.50;;;1.87;;
1358;SDS011;673;48.098;14.422;2023-06-04T04:36:01;3.23;;;1.60;;
1358;SDS011;673;48.098;14.422;2023-06-04T04:38:31;2.10;;;1.77;;
1358;SDS011;673;48.098;14.422;2023-06-04T04:40:58;4.40;;;2.10;;
1358;SDS011;673;48.098;14.422;2023-06-04T04:43:30;1.90;;;1.40;;
1358;SDS011;673;48.098;14.422;2023-06-04T04:45:57;2.03;;;1.60;;
1358;SDS011;673;48.098;14.422;2023-06-04T04:48:24;4.30;;;1.70;;
1358;SDS011;673;48.098;14.422;2023-06-04T04:50:51;3.13;;;1.80;;
1358;SDS011;673;48.098;14.422;2023-06-04T04:53:19;3.37;;;1.97;;
1358;SDS011;673;48.098;14.422;2023-06-04T04:55:47;2.70;;;1.40;;
1358;SDS011;673;48.098;14.422;2023-06-04T04:58:14;3.43;;;1.60;;
1358;SDS011;673;48.098;14.422;2023-06-04T05:00:42;2.27;;;1.40;;
1358;SDS011;673;48.098;14.422;2023-06-04T05:03:08;2.80;;;1.27;;
1358;SDS011;673;48.098;14.422;2023-06-04T05:05:35;2.00;;;1.33;;
1358;SDS011;673;48.098;14.422;2023-06-04T05:08:02;3.10;;;1.60;;
1358;SDS011;673;48.098;14.422;2023-06-04T05:10:30;1.57;;;1.47;;
1358;SDS011;673;48.098;14.422;2023-06-04T05:12:58;4.20;;;1.67;;
1358;SDS011;673;48.098;14.422;2023-06-04T05:15:26;3.40;;;1.47;;
1358;SDS011;673;48.098;14.422;2023-06-04T05:17:54;10.20;;;1.77;;
1358;SDS011;673;48.098;14.422;2023-06-04T05:20:23;4.67;;;1.60;;
1358;SDS011;673;48.098;14.422;2023-06-04T05:22:50;1.87;;;1.50;;
1358;SDS011;673;48.098;14.422;2023-06-04T05:25:17;2.13;;;1.37;;
1358;SDS011;673;48.098;14.422;2023-06-04T05:27:44;3.43;;;1.40;;
1358;SDS011;673;48.098;14.422;2023-06-04T05:30:15;3.13;;;1.47;;
1358;SDS011;673;48.098;14.422;2023-06-04T05:32:42;3.47;;;1.50;;
1358;SDS011;673;48.098;14.422;2023-06-04T05:35:09;2.77;;;1.53;;
1358;SDS011;673;48.098;14.422;2023-06-04T05:37:37;3.33;;;1.10;;
1358;SDS011;673;48.098;14.422;2023-06-04T05:40:06;1.63;;;1.27;;
1358;SDS011;673;48.098;14.422;2023-06-04T05:42:34;1.30;;;1.20;;
1358;SDS011;673;48.098;14.422;2023-06-04T05:45:02;3.00;;;2.07;;
1358;SDS011;673;48.098;14.422;2023-06-04T05:47:30;1.93;;;1.67;;
1358;SDS011;673;48.098;14.422;2023-06-04T05:49:57;3.60;;;1.33;;
1358;SDS011;673;48.098;14.422;2023-06-04T05:52:24;4.30;;;2.20;;
1358;SDS011;673;48.098;14.422;2023-06-04T05:54:51;2.70;;;2.50;;
1358;SDS011;673;48.098;14.422;2023-06-04T05:57:18;2.43;;;2.17;;
1358;SDS011;673;48.098;14.422;2023-06-04T05:59:46;2.27;;;1.53;;
1358;SDS011;673;48.098;14.422;2023-06-04T06:02:13;2.50;;;1.27;;
1358;SDS011;673;48.098;14.422;2023-06-04T06:04:41;2.43;;;1.60;;
1358;SDS011;673;48.098;14.422;2023-06-04T06:07:08;1.20;;;1.10;;
1358;SDS011;673;48.098;14.422;2023-06-04T06:09:35;1.50;;;1.30;;
1358;SDS011;673;48.098;14.422;2023-06-04T06:12:02;1.40;;;1.30;;
1358;SDS011;673;48.098;14.422;2023-06-04T06:14:30;2.70;;;1.20;;
1358;SDS011;673;48.098;14.422;2023-06-04T06:16:57;2.00;;;1.37;;
1358;SDS011;673;48.098;14.422;2023-06-04T06:19:25;2.13;;;1.20;;
1358;SDS011;673;48.098;14.422;2023-06-04T06:21:54;1.90;;;1.10;;
1358;SDS011;673;48.098;14.422;2023-06-04T06:24:20;1.50;;;1.20;;
1358;SDS011;673;48.098;14.422;2023-06-04T06:26:47;3.17;;;1.47;;
1358;SDS011;673;48.098;14.422;2023-06-04T06:29:14;2.13;;;1.30;;
1358;SDS011;673;48.098;14.422;2023-06-04T06:31:41;2.37;;;2.17;;
1358;SDS011;673;48.098;14.422;2023-06-04T06:34:08;6.10;;;1.60;;
1358;SDS011;673;48.098;14.422;2023-06-04T06:36:35;3.07;;;1.10;;
1358;SDS011;673;48.098;14.422;2023-06-04T06:39:03;6.70;;;2.23;;
1358;SDS011;673;48.098;14.422;2023-06-04T06:41:30;6.90;;;2.90;;
1358;SDS011;673;48.098;14.422;2023-06-04T06:43:57;6.43;;;3.20;;
1358;SDS011;673;48.098;14.422;2023-06-04T06:46:24;2.70;;;1.23;;
1358;SDS011;673;48.098;14.422;2023-06-04T06:48:51;2.20;;;1.27;;
1358;SDS011;673;48.098;14.422;2023-06-04T06:51:18;1.53;;;1.37;;
1358;SDS011;673;48.098;14.422;2023-06-04T06:53:45;2.73;;;1.50;;
1358;SDS011;673;48.098;14.422;2023-06-04T06:56:14;1.63;;;1.27;;
1358;SDS011;673;48.098;14.422;2023-06-04T06:58:43;3.10;;;1.30;;
1358;SDS011;673;48.098;14.422;2023-06-04T07:01:10;1.97;;;1.77;;
1358;SDS011;673;48.098;14.422;2023-06-04T07:03:37;2.20;;;1.30;;
1358;SDS011;673;48.098;14.422;2023-06-04T07:06:04;2.47;;;1.50;;
1358;SDS011;673;48.098;14.422;2023-06-04T07:08:32;2.77;;;1.60;;
1358;SDS011;673;48.098;14.422;2023-06-04T07:11:01;2.20;;;1.30;;
1358;SDS011;673;48.098;14.422;2023-06-04T07:13:30;3.27;;;1.73;;
1358;SDS011;673;48.098;14.422;2023-06-04T07:16:00;1.50;;;1.00;;
1358;SDS011;673;48.098;14.422;2023-06-04T07:18:27;3.00;;;2.33;;
1358;SDS011;673;48.098;14.422;2023-06-04T07:20:54;2.33;;;1.00;;
1358;SDS011;673;48.098;14.422;2023-06-04T07:23:21;3.00;;;1.30;;
1358;SDS011;673;48.098;14.422;2023-06-04T07:25:48;5.83;;;1.30;;
1358;SDS011;673;48.098;14.422;2023-06-04T07:28:15;2.13;;;1.40;;
1358;SDS011;673;48.098;14.422;2023-06-04T07:30:44;2.07;;;1.20;;
1358;SDS011;673;48.098;14.422;2023-06-04T07:33:11;3.30;;;1.50;;
1358;SDS011;673;48.098;14.422;2023-06-04T07:35:38;1.93;;;1.30;;
1358;SDS011;673;48.098;14.422;2023-06-04T07:38:05;1.80;;;1.33;;
1358;SDS011;673;48.098;14.422;2023-06-04T07:40:32;2.60;;;1.40;;
1358;SDS011;673;48.098;14.422;2023-06-04T07:42:59;3.00;;;1.00;;
1358;SDS011;673;48.098;14.422;2023-06-04T07:45:26;2.50;;;1.17;;
1358;SDS011;673;48.098;14.422;2023-06-04T07:47:56;2.97;;;1.30;;
1358;SDS011;673;48.098;14.422;2023-06-04T07:50:23;3.37;;;1.17;;
1358;SDS011;673;48.098;14.422;2023-06-04T07:52:50;2.00;;;1.30;;
1358;SDS011;673;48.098;14.422;2023-06-04T07:55:17;1.40;;;1.10;;
1358;SDS011;673;48.098;14.422;2023-06-04T07:57:44;2.40;;;1.20;;
1358;SDS011;673;48.098;14.422;2023-06-04T08:00:12;4.97;;;1.67;;
1358;SDS011;673;48.098;14.422;2023-06-04T08:02:39;2.87;;;1.17;;
1358;SDS011;673;48.098;14.422;2023-06-04T08:05:08;3.20;;;1.20;;
1358;SDS011;673;48.098;14.422;2023-06-04T08:07:35;2.70;;;1.60;;
1358;SDS011;673;48.098;14.422;2023-06-04T08:10:02;2.63;;;1.23;;
1358;SDS011;673;48.098;14.422;2023-06-04T08:12:30;3.43;;;1.70;;
1358;SDS011;673;48.098;14.422;2023-06-04T08:14:57;4.53;;;1.50;;
1358;SDS011;673;48.098;14.422;2023-06-04T08:17:23;2.23;;;1.43;;
1358;SDS011;673;48.098;14.422;2023-06-04T08:19:50;4.00;;;1.70;;
1358;SDS011;673;48.098;14.422;2023-06-04T08:22:19;1.27;;;1.10;;
1358;SDS011;673;48.098;14.422;2023-06-04T08:24:46;3.10;;;1.70;;
1358;SDS011;673;48.098;14.422;2023-06-04T08:27:13;2.13;;;1.67;;
1358;SDS011;673;48.098;14.422;2023-06-04T08:29:40;2.47;;;1.40;;
1358;SDS011;673;48.098;14.422;2023-06-04T08:32:07;2.23;;;1.30;;
1358;SDS011;673;48.098;14.422;2023-06-04T08:34:34;5.70;;;1.67;;
1358;SDS011;673;48.098;14.422;2023-06-04T08:37:01;1.67;;;1.20;;
1358;SDS011;673;48.098;14.422;2023-06-04T08:39:30;2.50;;;1.87;;
1358;SDS011;673;48.098;14.422;2023-06-04T08:42:00;3.33;;;1.97;;
1358;SDS011;673;48.098;14.422;2023-06-04T08:44:30;2.80;;;2.00;;
1358;SDS011;673;48.098;14.422;2023-06-04T08:47:01;1.57;;;1.47;;
1358;SDS011;673;48.098;14.422;2023-06-04T08:49:29;1.40;;;1.30;;
1358;SDS011;673;48.098;14.422;2023-06-04T08:52:00;1.60;;;1.30;;
1358;SDS011;673;48.098;14.422;2023-06-04T08:54:27;3.10;;;2.23;;
1358;SDS011;673;48.098;14.422;2023-06-04T08:56:57;4.80;;;1.43;;
1358;SDS011;673;48.098;14.422;2023-06-04T08:59:24;3.67;;;1.83;;
1358;SDS011;673;48.098;14.422;2023-06-04T09:01:51;2.07;;;1.77;;
1358;SDS011;673;48.098;14.422;2023-06-04T09:04:20;1.50;;;1.40;;
1358;SDS011;673;48.098;14.422;2023-06-04T09:06:47;3.30;;;1.43;;
1358;SDS011;673;48.098;14.422;2023-06-04T09:09:15;2.10;;;1.73;;
1358;SDS011;673;48.098;14.422;2023-06-04T09:11:49;3.70;;;2.10;;
1358;SDS011;673;48.098;14.422;2023-06-04T09:14:17;7.03;;;1.53;;
1358;SDS011;673;48.098;14.422;2023-06-04T09:16:45;4.40;;;2.70;;
1358;SDS011;673;48.098;14.422;2023-06-04T09:19:12;3.93;;;1.83;;
1358;SDS011;673;48.098;14.422;2023-06-04T09:21:46;2.40;;;1.83;;
1358;SDS011;673;48.098;14.422;2023-06-04T09:24:14;4.30;;;1.93;;
1358;SDS011;673;48.098;14.422;2023-06-04T09:26:41;1.60;;;1.50;;
1358;SDS011;673;48.098;14.422;2023-06-04T09:29:10;4.60;;;2.73;;
1358;SDS011;673;48.098;14.422;2023-06-04T09:31:37;2.40;;;2.20;;
1358;SDS011;673;48.098;14.422;2023-06-04T09:34:05;2.30;;;1.43;;
1358;SDS011;673;48.098;14.422;2023-06-04T09:36:32;1.70;;;1.43;;
1358;SDS011;673;48.098;14.422;2023-06-04T09:39:00;2.80;;;2.60;;
1358;SDS011;673;48.098;14.422;2023-06-04T09:41:28;3.33;;;2.43;;
1358;SDS011;673;48.098;14.422;2023-06-04T09:44:01;4.70;;;2.20;;
1358;SDS011;673;48.098;14.422;2023-06-04T09:46:30;3.47;;;2.27;;
1358;SDS011;673;48.098;14.422;2023-06-04T09:49:00;6.00;;;2.03;;
1358;SDS011;673;48.098;14.422;2023-06-04T09:51:29;3.63;;;1.67;;
1358;SDS011;673;48.098;14.422;2023-06-04T09:53:57;2.17;;;1.97;;
1358;SDS011;673;48.098;14.422;2023-06-04T09:56:25;2.80;;;1.50;;
1358;SDS011;673;48.098;14.422;2023-06-04T09:58:53;6.47;;;2.23;;
1358;SDS011;673;48.098;14.422;2023-06-04T10:01:22;3.23;;;2.47;;
1358;SDS011;673;48.098;14.422;2023-06-04T10:03:54;3.83;;;2.30;;
1358;SDS011;673;48.098;14.422;2023-06-04T10:06:22;2.47;;;2.27;;
1358;SDS011;673;48.098;14.422;2023-06-04T10:08:50;2.37;;;1.97;;
1358;SDS011;673;48.098;14.422;2023-06-04T10:11:19;3.00;;;2.47;;
1358;SDS011;673;48.098;14.422;2023-06-04T10:13:53;2.90;;;2.60;;
1358;SDS011;673;48.098;14.422;2023-06-04T10:16:22;2.27;;;1.80;;
1358;SDS011;673;48.098;14.422;2023-06-04T10:18:53;3.20;;;2.60;;
1358;SDS011;673;48.098;14.422;2023-06-04T10:21:21;3.33;;;2.23;;
1358;SDS011;673;48.098;14.422;2023-06-04T10:23:49;2.37;;;2.17;;
1358;SDS011;673;48.098;14.422;2023-06-04T10:26:16;1.90;;;1.70;;
1358;SDS011;673;48.098;14.422;2023-06-04T10:28:43;2.57;;;2.37;;
1358;SDS011;673;48.098;14.422;2023-06-04T10:31:10;8.60;;;2.10;;
1358;SDS011;673;48.098;14.422;2023-06-04T10:33:38;2.40;;;2.10;;
1358;SDS011;673;48.098;14.422;2023-06-04T10:36:16;7.60;;;2.57;;
1358;SDS011;673;48.098;14.422;2023-06-04T10:38:45;3.20;;;2.30;;
1358;SDS011;673;48.098;14.422;2023-06-04T10:41:15;2.33;;;2.10;;
1358;SDS011;673;48.098;14.422;2023-06-04T10:43:44;3.10;;;2.40;;
1358;SDS011;673;48.098;14.422;2023-06-04T10:46:11;3.13;;;2.30;;
1358;SDS011;673;48.098;14.422;2023-06-04T10:48:46;4.60;;;2.43;;
1358;SDS011;673;48.098;14.422;2023-06-04T10:51:14;3.33;;;2.93;;
1358;SDS011;673;48.098;14.422;2023-06-04T10:53:54;2.97;;;2.37;;
1358;SDS011;673;48.098;14.422;2023-06-04T10:56:24;3.03;;;2.63;;
1358;SDS011;673;48.098;14.422;2023-06-04T10:58:51;3.90;;;2.07;;
1358;SDS011;673;48.098;14.422;2023-06-04T11:01:22;5.30;;;2.73;;
1358;SDS011;673;48.098;14.422;2023-06-04T11:03:50;8.40;;;3.10;;
1358;SDS011;673;48.098;14.422;2023-06-04T11:06:19;3.40;;;2.30;;
1358;SDS011;673;48.098;14.422;2023-06-04T11:08:46;2.90;;;2.07;;
1358;SDS011;673;48.098;14.422;2023-06-04T11:11:13;3.43;;;2.67;;
1358;SDS011;673;48.098;14.422;2023-06-04T11:13:41;3.57;;;3.00;;
1358;SDS011;673;48.098;14.422;2023-06-04T11:16:15;4.63;;;2.60;;
1358;SDS011;673;48.098;14.422;2023-06-04T11:18:43;2.90;;;2.33;;
1358;SDS011;673;48.098;14.422;2023-06-04T11:21:21;2.03;;;1.93;;
1358;SDS011;673;48.098;14.422;2023-06-04T11:23:48;4.30;;;3.13;;
1358;SDS011;673;48.098;14.422;2023-06-04T11:26:21;2.57;;;2.30;;
1358;SDS011;673;48.098;14.422;2023-06-04T11:28:50;5.03;;;2.43;;
1358;SDS011;673;48.098;14.422;2023-06-04T11:31:18;2.50;;;2.20;;
1358;SDS011;673;48.098;14.422;2023-06-04T11:33:46;3.07;;;2.77;;
1358;SDS011;673;48.098;14.422;2023-06-04T11:36:23;2.33;;;1.97;;
1358;SDS011;673;48.098;14.422;2023-06-04T11:38:55;2.23;;;2.13;;
1358;SDS011;673;48.098;14.422;2023-06-04T11:41:23;3.13;;;2.37;;
1358;SDS011;673;48.098;14.422;2023-06-04T11:43:51;4.93;;;2.20;;
1358;SDS011;673;48.098;14.422;2023-06-04T11:46:18;4.20;;;3.87;;
1358;SDS011;673;48.098;14.422;2023-06-04T11:48:45;3.07;;;2.77;;
1358;SDS011;673;48.098;14.422;2023-06-04T11:51:12;3.23;;;2.93;;
1358;SDS011;673;48.098;14.422;2023-06-04T11:53:41;2.20;;;1.97;;
1358;SDS011;673;48.098;14.422;2023-06-04T11:56:08;2.40;;;2.30;;
1358;SDS011;673;48.098;14.422;2023-06-04T11:58:36;2.67;;;2.40;;
1358;SDS011;673;48.098;14.422;2023-06-04T12:01:03;5.53;;;3.00;;
1358;SDS011;673;48.098;14.422;2023-06-04T12:03:34;5.63;;;4.80;;
1358;SDS011;673;48.098;14.422;2023-06-04T12:06:10;3.20;;;2.97;;
1358;SDS011;673;48.098;14.422;2023-06-04T12:08:45;2.63;;;2.43;;
1358;SDS011;673;48.098;14.422;2023-06-04T12:11:24;3.23;;;2.70;;
1358;SDS011;673;48.098;14.422;2023-06-04T12:13:53;3.07;;;2.37;;
1358;SDS011;673;48.098;14.422;2023-06-04T12:16:23;2.43;;;1.90;;
1358;SDS011;673;48.098;14.422;2023-06-04T12:18:51;2.73;;;1.90;;
1358;SDS011;673;48.098;14.422;2023-06-04T12:21:20;2.77;;;2.50;;
1358;SDS011;673;48.098;14.422;2023-06-04T12:23:53;3.17;;;2.70;;
1358;SDS011;673;48.098;14.422;2023-06-04T12:26:21;2.70;;;2.50;;
1358;SDS011;673;48.098;14.422;2023-06-04T12:28:58;7.20;;;3.37;;
1358;SDS011;673;48.098;14.422;2023-06-04T12:31:26;2.40;;;1.70;;
1358;SDS011;673;48.098;14.422;2023-06-04T12:33:57;3.17;;;2.53;;
1358;SDS011;673;48.098;14.422;2023-06-04T12:36:25;3.13;;;2.47;;
1358;SDS011;673;48.098;14.422;2023-06-04T12:38:57;2.60;;;2.40;;
1358;SDS011;673;48.098;14.422;2023-06-04T12:41:26;2.20;;;2.07;;
1358;SDS011;673;48.098;14.422;2023-06-04T12:43:53;3.37;;;3.17;;
1358;SDS011;673;48.098;14.422;2023-06-04T12:46:20;2.90;;;2.60;;
1358;SDS011;673;48.098;14.422;2023-06-04T12:48:48;7.50;;;2.67;;
1358;SDS011;673;48.098;14.422;2023-06-04T12:51:15;3.33;;;3.03;;
1358;SDS011;673;48.098;14.422;2023-06-04T12:53:42;2.80;;;2.60;;
1358;SDS011;673;48.098;14.422;2023-06-04T12:56:11;3.10;;;2.77;;
1358;SDS011;673;48.098;14.422;2023-06-04T12:58:38;2.73;;;2.53;;
1358;SDS011;673;48.098;14.422;2023-06-04T13:01:05;3.00;;;2.80;;
1358;SDS011;673;48.098;14.422;2023-06-04T13:03:32;2.60;;;2.40;;
1358;SDS011;673;48.098;14.422;2023-06-04T13:06:00;3.30;;;3.10;;
1358;SDS011;673;48.098;14.422;2023-06-04T13:08:26;3.17;;;2.87;;
1358;SDS011;673;48.098;14.422;2023-06-04T13:10:53;2.40;;;2.20;;
1358;SDS011;673;48.098;14.422;2023-06-04T13:13:23;3.93;;;3.37;;
1358;SDS011;673;48.098;14.422;2023-06-04T13:15:50;4.73;;;2.80;;
1358;SDS011;673;48.098;14.422;2023-06-04T13:18:17;3.87;;;2.47;;
1358;SDS011;673;48.098;14.422;2023-06-04T13:20:44;2.97;;;2.77;;
1358;SDS011;673;48.098;14.422;2023-06-04T13:23:11;2.80;;;2.60;;
1358;SDS011;673;48.098;14.422;2023-06-04T13:25:38;3.00;;;2.60;;
1358;SDS011;673;48.098;14.422;2023-06-04T13:28:06;3.50;;;3.20;;
1358;SDS011;673;48.098;14.422;2023-06-04T13:30:35;4.87;;;3.57;;
1358;SDS011;673;48.098;14.422;2023-06-04T13:33:03;4.03;;;2.77;;
1358;SDS011;673;48.098;14.422;2023-06-04T13:35:31;2.90;;;2.70;;
1358;SDS011;673;48.098;14.422;2023-06-04T13:37:58;4.53;;;3.30;;
1358;SDS011;673;48.098;14.422;2023-06-04T13:40:25;3.20;;;2.90;;
1358;SDS011;673;48.098;14.422;2023-06-04T13:42:51;3.30;;;3.00;;
1358;SDS011;673;48.098;14.422;2023-06-04T13:45:18;6.97;;;3.07;;
1358;SDS011;673;48.098;14.422;2023-06-04T13:47:47;3.07;;;2.87;;
1358;SDS011;673;48.098;14.422;2023-06-04T13:50:14;2.50;;;2.30;;
1358;SDS011;673;48.098;14.422;2023-06-04T13:52:42;3.57;;;3.10;;
1358;SDS011;673;48.098;14.422;2023-06-04T13:55:11;3.37;;;3.07;;
1358;SDS011;673;48.098;14.422;2023-06-04T13:57:38;4.03;;;3.73;;
1358;SDS011;673;48.098;14.422;2023-06-04T14:00:05;3.47;;;2.80;;
1358;SDS011;673;48.098;14.422;2023-06-04T14:02:33;3.87;;;3.50;;
1358;SDS011;673;48.098;14.422;2023-06-04T14:05:01;6.70;;;3.53;;
1358;SDS011;673;48.098;14.422;2023-06-04T14:07:28;3.97;;;2.63;;
1358;SDS011;673;48.098;14.422;2023-06-04T14:09:55;2.77;;;2.53;;
1358;SDS011;673;48.098;14.422;2023-06-04T14:12:22;3.50;;;3.20;;
1358;SDS011;673;48.098;14.422;2023-06-04T14:14:49;3.23;;;2.30;;
1358;SDS011;673;48.098;14.422;2023-06-04T14:17:16;3.70;;;3.00;;
1358;SDS011;673;48.098;14.422;2023-06-04T14:19:43;3.43;;;2.80;;
1358;SDS011;673;48.098;14.422;2023-06-04T14:22:12;3.07;;;2.80;;
1358;SDS011;673;48.098;14.422;2023-06-04T14:24:40;3.13;;;2.80;;
1358;SDS011;673;48.098;14.422;2023-06-04T14:27:07;2.53;;;2.33;;
1358;SDS011;673;48.098;14.422;2023-06-04T14:29:34;3.17;;;2.80;;
1358;SDS011;673;48.098;14.422;2023-06-04T14:32:02;6.27;;;2.60;;
1358;SDS011;673;48.098;14.422;2023-06-04T14:34:29;2.60;;;2.23;;
1358;SDS011;673;48.098;14.422;2023-06-04T14:36:57;3.27;;;2.97;;
1358;SDS011;673;48.098;14.422;2023-06-04T14:39:26;5.63;;;3.07;;
1358;SDS011;673;48.098;14.422;2023-06-04T14:41:53;2.70;;;2.50;;
1358;SDS011;673;48.098;14.422;2023-06-04T14:44:20;3.00;;;2.80;;
1358;SDS011;673;48.098;14.422;2023-06-04T14:46:48;2.73;;;2.57;;
1358;SDS011;673;48.098;14.422;2023-06-04T14:49:16;8.27;;;7.47;;
1358;SDS011;673;48.098;14.422;2023-06-04T14:51:43;3.83;;;3.20;;
1358;SDS011;673;48.098;14.422;2023-06-04T14:54:10;4.03;;;3.67;;
1358;SDS011;673;48.098;14.422;2023-06-04T14:56:38;3.00;;;2.80;;
1358;SDS011;673;48.098;14.422;2023-06-04T14:59:05;3.13;;;2.83;;
1358;SDS011;673;48.098;14.422;2023-06-04T15:01:36;3.63;;;3.33;;
1358;SDS011;673;48.098;14.422;2023-06-04T15:04:03;3.70;;;3.47;;
1358;SDS011;673;48.098;14.422;2023-06-04T15:06:30;3.60;;;3.30;;
1358;SDS011;673;48.098;14.422;2023-06-04T15:08:57;3.43;;;3.13;;
1358;SDS011;673;48.098;14.422;2023-06-04T15:11:24;3.17;;;2.87;;
1358;SDS011;673;48.098;14.422;2023-06-04T15:13:53;4.40;;;4.00;;
1358;SDS011;673;48.098;14.422;2023-06-04T15:16:20;7.00;;;3.57;;
1358;SDS011;673;48.098;14.422;2023-06-04T15:18:47;3.73;;;3.40;;
1358;SDS011;673;48.098;14.422;2023-06-04T15:21:15;4.67;;;4.27;;
1358;SDS011;673;48.098;14.422;2023-06-04T15:23:41;3.50;;;3.20;;